createdAt,value
2019-03-31T00:00:19.102Z,12.82
2019-03-31T00:01:19.095Z,12.82
2019-03-31T00:02:19.083Z,12.82
2019-03-31T00:03:19.080Z,12.83
2019-03-31T00:04:19.078Z,12.80
2019-03-31T00:05:19.060Z,12.80
2019-03-31T00:06:19.063Z,12.68
2019-03-31T00:07:19.046Z,12.73
2019-03-31T00:08:19.041Z,12.78
2019-03-31T00:09:19.034Z,12.64
2019-03-31T00:10:19.020Z,12.73
2019-03-31T00:11:19.016Z,12.65
2019-03-31T00:12:19.011Z,12.65
2019-03-31T00:13:18.999Z,12.68
2019-03-31T00:14:18.992Z,12.54
2019-03-31T00:15:18.987Z,12.60
2019-03-31T00:16:18.980Z,12.55
2019-03-31T00:17:18.971Z,12.53
2019-03-31T00:18:18.968Z,12.46
2019-03-31T00:19:18.959Z,12.49
2019-03-31T00:20:18.950Z,12.42
2019-03-31T00:21:18.941Z,12.45
2019-03-31T00:22:18.933Z,12.43
2019-03-31T00:23:18.925Z,12.37
2019-03-31T00:24:18.921Z,12.40
2019-03-31T00:25:18.911Z,12.31
2019-03-31T00:26:18.904Z,12.35
2019-03-31T00:27:18.899Z,12.24
2019-03-31T00:28:18.897Z,12.32
2019-03-31T00:29:18.882Z,12.36
2019-03-31T00:30:18.867Z,12.32
2019-03-31T00:31:22.298Z,12.29
2019-03-31T00:32:18.856Z,12.31
2019-03-31T00:33:18.851Z,12.27
2019-03-31T00:34:18.841Z,12.32
2019-03-31T00:35:18.839Z,12.32
2019-03-31T00:36:18.829Z,12.25
2019-03-31T00:37:18.817Z,12.18
2019-03-31T00:38:18.808Z,12.31
2019-03-31T00:39:18.801Z,12.18
2019-03-31T00:40:18.793Z,12.22
2019-03-31T00:41:18.787Z,12.25
2019-03-31T00:42:18.782Z,12.31
2019-03-31T00:43:18.771Z,12.20
2019-03-31T00:44:18.765Z,12.21
2019-03-31T00:45:18.755Z,12.21
2019-03-31T00:46:18.750Z,12.22
2019-03-31T00:47:18.751Z,12.18
2019-03-31T00:48:18.730Z,12.27
2019-03-31T00:49:18.726Z,12.25
2019-03-31T00:50:18.723Z,12.29
2019-03-31T00:51:18.709Z,12.29
2019-03-31T00:52:18.705Z,12.29
2019-03-31T00:53:18.690Z,12.28
2019-03-31T00:54:18.690Z,12.27
2019-03-31T00:55:18.685Z,12.24
2019-03-31T00:56:18.676Z,12.35
2019-03-31T00:57:18.662Z,12.22
2019-03-31T00:58:18.655Z,12.18
2019-03-31T00:59:18.651Z,12.25
2019-03-31T01:00:18.641Z,12.18
2019-03-31T01:01:18.637Z,12.18
2019-03-31T01:02:18.630Z,12.15
2019-03-31T01:03:18.612Z,12.17
2019-03-31T01:04:18.614Z,12.15
2019-03-31T01:05:18.912Z,12.18
2019-03-31T01:06:18.593Z,12.25
2019-03-31T01:07:18.583Z,12.18
2019-03-31T01:08:18.579Z,12.21
2019-03-31T01:09:18.570Z,12.24
2019-03-31T01:10:18.568Z,12.24
2019-03-31T01:11:18.554Z,12.24
2019-03-31T01:12:18.546Z,12.18
2019-03-31T01:13:18.536Z,12.24
2019-03-31T01:14:18.534Z,12.21
2019-03-31T01:15:18.524Z,12.22
2019-03-31T01:16:18.515Z,12.22
2019-03-31T01:17:19.008Z,12.22
2019-03-31T01:18:18.501Z,12.27
2019-03-31T01:19:18.496Z,12.17
2019-03-31T01:20:18.481Z,12.22
2019-03-31T01:21:18.476Z,12.24
2019-03-31T01:22:18.470Z,12.21
2019-03-31T01:23:18.457Z,12.22
2019-03-31T01:24:18.460Z,12.22
2019-03-31T01:25:18.448Z,12.20
2019-03-31T01:26:18.438Z,12.24
2019-03-31T01:27:18.436Z,12.21
2019-03-31T01:28:18.432Z,12.17
2019-03-31T01:29:18.410Z,12.18
2019-03-31T01:30:18.453Z,12.20
2019-03-31T01:31:18.397Z,12.20
2019-03-31T01:32:18.395Z,12.17
2019-03-31T01:33:18.387Z,12.04
2019-03-31T01:34:18.371Z,12.02
2019-03-31T01:35:18.366Z,12.13
2019-03-31T01:36:18.366Z,12.20
2019-03-31T01:37:20.160Z,12.24
2019-03-31T01:38:18.349Z,12.15
2019-03-31T01:39:18.344Z,12.18
2019-03-31T01:40:18.333Z,12.17
2019-03-31T01:41:18.323Z,12.22
2019-03-31T01:42:18.310Z,12.22
2019-03-31T01:43:18.307Z,12.20
2019-03-31T01:44:18.298Z,12.12
2019-03-31T01:45:18.288Z,12.03
2019-03-31T01:46:18.300Z,12.03
2019-03-31T01:47:18.280Z,12.02
2019-03-31T01:48:18.266Z,12.06
2019-03-31T01:49:18.259Z,12.04
2019-03-31T01:50:18.262Z,12.04
2019-03-31T01:51:18.253Z,12.00
2019-03-31T01:52:18.239Z,12.07
2019-03-31T01:53:18.233Z,12.02
2019-03-31T01:54:32.910Z,12.00
2019-03-31T01:55:18.216Z,11.99
2019-03-31T01:56:18.205Z,11.99
2019-03-31T01:57:18.200Z,12.02
2019-03-31T01:58:18.190Z,11.97
2019-03-31T01:59:18.183Z,11.87
2019-03-31T02:00:18.176Z,11.88
2019-03-31T02:01:18.166Z,11.84
2019-03-31T02:02:18.160Z,11.94
2019-03-31T02:03:18.213Z,11.91
2019-03-31T02:04:18.145Z,11.91
2019-03-31T02:05:18.137Z,11.91
2019-03-31T02:06:18.129Z,11.86
2019-03-31T02:07:18.118Z,11.87
2019-03-31T02:08:18.111Z,11.87
2019-03-31T02:09:18.105Z,11.86
2019-03-31T02:10:18.103Z,11.83
2019-03-31T02:11:18.087Z,11.87
2019-03-31T02:12:18.085Z,11.72
2019-03-31T02:13:18.075Z,11.78
2019-03-31T02:14:18.066Z,11.77
2019-03-31T02:15:18.056Z,11.65
2019-03-31T02:16:18.059Z,11.60
2019-03-31T02:17:18.044Z,11.66
2019-03-31T02:18:18.031Z,11.59
2019-03-31T02:19:18.034Z,11.57
2019-03-31T02:20:18.098Z,11.50
2019-03-31T02:21:18.009Z,11.45
2019-03-31T02:22:18.006Z,11.50
2019-03-31T02:23:17.992Z,11.47
2019-03-31T02:24:17.991Z,11.54
2019-03-31T02:25:17.979Z,11.48
2019-03-31T02:26:17.979Z,11.43
2019-03-31T02:27:17.963Z,11.37
2019-03-31T02:28:17.956Z,11.33
2019-03-31T02:29:17.948Z,11.36
2019-03-31T02:30:17.940Z,11.37
2019-03-31T02:31:17.931Z,11.43
2019-03-31T02:32:24.205Z,11.41
2019-03-31T02:33:17.909Z,11.30
2019-03-31T02:34:17.902Z,11.37
2019-03-31T02:35:17.901Z,11.37
2019-03-31T02:36:17.896Z,11.36
2019-03-31T02:37:17.885Z,11.44
2019-03-31T02:38:18.424Z,11.41
2019-03-31T02:39:17.865Z,11.35
2019-03-31T02:40:17.858Z,11.44
2019-03-31T02:41:17.852Z,11.40
2019-03-31T02:42:17.843Z,11.44
2019-03-31T02:43:17.838Z,11.27
2019-03-31T02:44:17.828Z,11.43
2019-03-31T02:45:17.826Z,11.36
2019-03-31T02:46:17.817Z,11.37
2019-03-31T02:47:17.802Z,11.40
2019-03-31T02:48:17.795Z,11.40
2019-03-31T02:49:17.789Z,11.44
2019-03-31T02:50:17.782Z,11.41
2019-03-31T02:51:17.769Z,11.33
2019-03-31T02:52:17.843Z,11.36
2019-03-31T02:53:17.756Z,11.29
2019-03-31T02:54:17.745Z,11.29
2019-03-31T02:55:17.734Z,11.36
2019-03-31T02:56:17.735Z,11.33
2019-03-31T02:57:17.719Z,11.36
2019-03-31T02:58:17.713Z,11.32
2019-03-31T02:59:17.705Z,11.40
2019-03-31T03:00:17.703Z,11.26
2019-03-31T03:01:18.379Z,11.26
2019-03-31T03:02:17.721Z,11.26
2019-03-31T03:03:17.682Z,11.26
2019-03-31T03:04:17.661Z,11.15
2019-03-31T03:05:20.273Z,11.11
2019-03-31T03:06:17.652Z,11.12
2019-03-31T03:07:17.642Z,11.11
2019-03-31T03:08:17.631Z,11.07
2019-03-31T03:09:17.629Z,11.08
2019-03-31T03:10:17.619Z,11.07
2019-03-31T03:11:17.620Z,11.04
2019-03-31T03:12:17.601Z,10.93
2019-03-31T03:13:17.590Z,11.02
2019-03-31T03:14:17.591Z,10.92
2019-03-31T03:15:17.579Z,10.97
2019-03-31T03:16:17.570Z,10.87
2019-03-31T03:17:17.561Z,10.89
2019-03-31T03:18:17.561Z,10.82
2019-03-31T03:19:17.545Z,10.79
2019-03-31T03:20:17.537Z,10.82
2019-03-31T03:21:17.528Z,10.81
2019-03-31T03:22:17.518Z,10.81
2019-03-31T03:23:17.510Z,10.79
2019-03-31T03:24:17.508Z,10.86
2019-03-31T03:25:17.506Z,10.81
2019-03-31T03:26:17.487Z,10.84
2019-03-31T03:27:17.482Z,10.72
2019-03-31T03:28:17.474Z,10.79
2019-03-31T03:29:17.471Z,10.72
2019-03-31T03:30:17.735Z,10.81
2019-03-31T03:31:17.630Z,10.72
2019-03-31T03:32:17.502Z,10.72
2019-03-31T03:33:18.398Z,10.69
2019-03-31T03:34:17.432Z,10.64
2019-03-31T03:35:17.418Z,10.61
2019-03-31T03:36:17.488Z,10.57
2019-03-31T03:37:17.392Z,10.54
2019-03-31T03:38:17.396Z,10.41
2019-03-31T03:39:17.379Z,10.48
2019-03-31T03:40:17.376Z,10.40
2019-03-31T03:41:17.361Z,10.41
2019-03-31T03:42:17.353Z,10.41
2019-03-31T03:43:17.351Z,10.30
2019-03-31T03:44:17.335Z,10.35
2019-03-31T03:45:17.345Z,10.40
2019-03-31T03:46:17.323Z,10.37
2019-03-31T03:47:17.312Z,10.33
2019-03-31T03:48:17.304Z,10.30
2019-03-31T03:49:17.592Z,10.19
2019-03-31T03:50:17.284Z,10.15
2019-03-31T03:51:17.277Z,10.20
2019-03-31T03:52:17.273Z,10.23
2019-03-31T03:53:17.259Z,10.12
2019-03-31T03:54:17.254Z,10.13
2019-03-31T03:55:17.253Z,10.17
2019-03-31T03:56:17.250Z,10.13
2019-03-31T03:57:17.223Z,10.19
2019-03-31T03:58:17.217Z,10.13
2019-03-31T03:59:17.221Z,10.01
2019-03-31T04:00:17.206Z,9.98
2019-03-31T04:01:17.220Z,9.97
2019-03-31T04:02:17.195Z,9.84
2019-03-31T04:03:30.125Z,9.84
2019-03-31T04:04:17.176Z,9.80
2019-03-31T12:35:27.105Z,12.86
2019-03-31T12:36:26.841Z,12.87
2019-03-31T12:37:41.243Z,12.98
2019-03-31T12:38:26.866Z,13.13
2019-03-31T12:39:26.846Z,13.13
2019-03-31T12:40:26.841Z,13.25
2019-03-31T12:41:26.886Z,13.25
2019-03-31T12:42:26.848Z,13.22
2019-03-31T12:43:26.863Z,13.16
2019-03-31T12:44:27.596Z,13.11
2019-03-31T12:45:26.846Z,13.13
2019-03-31T12:46:27.594Z,13.09
2019-03-31T12:47:26.833Z,13.00
2019-03-31T12:48:26.799Z,13.00
2019-03-31T12:49:28.633Z,13.01
2019-03-31T12:50:26.848Z,12.87
2019-03-31T12:51:29.487Z,12.97
2019-03-31T12:52:26.770Z,12.94
2019-03-31T12:53:27.661Z,12.86
2019-03-31T12:54:26.814Z,12.97
2019-03-31T12:55:26.809Z,12.78
2019-03-31T12:56:26.768Z,12.79
2019-03-31T12:57:26.760Z,12.79
2019-03-31T12:58:26.772Z,12.72
2019-03-31T12:59:27.443Z,12.46
2019-03-31T13:00:26.750Z,12.25
2019-03-31T13:01:26.786Z,12.25
2019-03-31T13:02:26.732Z,12.35
2019-03-31T13:03:26.736Z,12.27
2019-03-31T13:04:26.743Z,12.24
2019-03-31T13:05:26.754Z,12.27
2019-03-31T13:06:26.754Z,12.15
2019-03-31T13:07:26.766Z,12.18
2019-03-31T13:08:26.722Z,12.21
2019-03-31T13:09:26.730Z,12.27
2019-03-31T13:10:26.708Z,12.20
2019-03-31T13:11:26.727Z,12.03
2019-03-31T13:12:26.700Z,12.02
2019-03-31T13:13:26.732Z,11.97
2019-03-31T13:14:26.714Z,11.97
2019-03-31T13:15:26.694Z,11.97
2019-03-31T13:16:26.657Z,12.02
2019-03-31T13:17:27.565Z,12.03
2019-03-31T13:18:28.182Z,12.28
2019-03-31T13:19:26.690Z,12.31
2019-03-31T13:20:26.622Z,12.35
2019-03-31T13:21:26.705Z,12.49
2019-03-31T13:22:26.649Z,12.53
2019-03-31T13:23:27.622Z,12.55
2019-03-31T13:24:26.654Z,12.72
2019-03-31T13:25:26.648Z,12.86
2019-03-31T13:26:26.607Z,12.86
2019-03-31T13:27:26.641Z,13.03
2019-03-31T13:28:26.639Z,13.11
2019-03-31T13:29:26.610Z,13.20
2019-03-31T13:30:26.633Z,13.13
2019-03-31T13:31:26.628Z,13.28
2019-03-31T13:32:27.072Z,13.35
2019-03-31T13:33:26.614Z,13.42
2019-03-31T13:34:26.610Z,13.41
2019-03-31T13:35:26.554Z,13.54
2019-03-31T13:36:26.594Z,13.54
2019-03-31T13:37:26.599Z,13.60
2019-03-31T13:38:26.597Z,13.71
2019-03-31T13:39:26.595Z,13.57
2019-03-31T13:40:26.587Z,13.41
2019-03-31T13:41:26.571Z,13.41
2019-03-31T13:42:26.571Z,13.39
2019-03-31T13:43:26.574Z,13.35
2019-03-31T13:44:26.524Z,13.27
2019-03-31T13:45:26.509Z,13.19
2019-03-31T13:46:26.511Z,13.13
2019-03-31T13:47:26.480Z,13.16
2019-03-31T13:48:26.548Z,13.25
2019-03-31T13:49:26.473Z,13.35
2019-03-31T13:50:26.480Z,13.33
2019-03-31T13:51:26.757Z,13.31
2019-03-31T13:52:26.463Z,13.31
2019-03-31T13:53:26.454Z,13.54
2019-03-31T13:54:27.068Z,13.53
2019-03-31T13:55:26.453Z,13.52
2019-03-31T13:56:26.613Z,13.42
2019-03-31T13:57:27.413Z,13.31
2019-03-31T13:58:28.516Z,13.23
2019-03-31T13:59:26.440Z,13.15
2019-03-31T14:00:26.596Z,13.01
2019-03-31T14:01:26.419Z,12.98
2019-03-31T14:02:26.413Z,13.00
2019-03-31T14:03:26.408Z,13.03
2019-03-31T14:04:26.402Z,13.03
2019-03-31T14:05:26.396Z,13.00
2019-03-31T14:06:26.390Z,13.09
2019-03-31T14:07:26.389Z,13.20
2019-03-31T14:08:26.436Z,13.19
2019-03-31T14:09:26.377Z,13.23
2019-03-31T14:10:26.379Z,13.23
2019-03-31T14:11:26.368Z,13.27
2019-03-31T14:12:26.360Z,13.28
2019-03-31T14:13:26.354Z,13.23
2019-03-31T14:14:26.346Z,13.30
2019-03-31T14:15:26.344Z,13.25
2019-03-31T14:16:29.068Z,13.25
2019-03-31T14:17:26.406Z,13.19
2019-03-31T14:18:26.361Z,13.16
2019-03-31T14:19:26.324Z,13.16
2019-03-31T14:20:26.318Z,13.13
2019-03-31T14:21:26.307Z,13.13
2019-03-31T14:22:26.321Z,13.03
2019-03-31T14:23:26.302Z,13.04
2019-03-31T14:24:27.100Z,13.15
2019-03-31T14:25:26.293Z,13.22
2019-03-31T14:26:26.369Z,13.33
2019-03-31T14:27:26.282Z,13.57
2019-03-31T14:28:26.278Z,13.52
2019-03-31T14:29:26.269Z,13.67
2019-03-31T14:30:26.267Z,13.67
2019-03-31T14:31:26.261Z,13.63
2019-03-31T14:32:26.259Z,13.70
2019-03-31T14:33:26.252Z,13.78
2019-03-31T14:34:26.245Z,13.79
2019-03-31T14:35:26.241Z,13.75
2019-03-31T14:36:26.231Z,13.86
2019-03-31T14:37:26.231Z,13.85
2019-03-31T14:38:39.433Z,13.96
2019-03-31T14:39:26.221Z,13.97
2019-03-31T14:40:26.219Z,14.07
2019-03-31T14:41:26.210Z,14.12
2019-03-31T14:42:26.228Z,14.05
2019-03-31T14:43:28.070Z,13.96
2019-03-31T14:44:26.198Z,13.92
2019-03-31T14:45:26.194Z,13.89
2019-03-31T14:46:26.194Z,13.81
2019-03-31T14:47:26.184Z,13.67
2019-03-31T14:48:26.186Z,13.57
2019-03-31T14:49:26.170Z,13.52
2019-03-31T14:50:26.201Z,13.42
2019-03-31T14:51:26.166Z,13.35
2019-03-31T14:52:27.488Z,13.28
2019-03-31T14:53:26.168Z,13.38
2019-03-31T14:54:26.141Z,13.35
2019-03-31T14:55:26.135Z,13.38
2019-03-31T14:56:26.135Z,13.27
2019-03-31T14:57:26.127Z,13.31
2019-03-31T14:58:26.122Z,13.30
2019-03-31T14:59:26.117Z,13.28
2019-03-31T15:00:26.113Z,13.31
2019-03-31T15:01:26.108Z,13.27
2019-03-31T15:02:26.098Z,13.20
2019-03-31T15:03:26.096Z,13.23
2019-03-31T15:04:26.094Z,13.23
2019-03-31T15:05:26.091Z,13.28
2019-03-31T15:06:26.073Z,13.28
2019-03-31T15:07:26.071Z,13.12
2019-03-31T15:08:26.061Z,12.98
2019-03-31T15:09:26.059Z,13.00
2019-03-31T15:10:26.054Z,13.01
2019-03-31T15:11:26.045Z,13.01
2019-03-31T15:12:26.043Z,13.05
2019-03-31T15:13:26.040Z,13.03
2019-03-31T15:14:26.027Z,13.01
2019-03-31T15:15:26.022Z,13.04
2019-03-31T15:16:26.019Z,13.04
2019-03-31T15:17:26.016Z,12.97
2019-03-31T15:18:26.004Z,12.91
2019-03-31T15:19:25.998Z,12.82
2019-03-31T15:20:26.002Z,12.85
2019-03-31T15:21:25.986Z,12.87
2019-03-31T15:22:25.979Z,12.90
2019-03-31T15:23:29.038Z,12.97
2019-03-31T15:24:25.963Z,13.04
2019-03-31T15:25:25.960Z,12.98
2019-03-31T15:26:25.960Z,12.95
2019-03-31T15:27:25.947Z,12.91
2019-03-31T15:28:25.942Z,12.97
2019-03-31T15:29:25.934Z,12.93
2019-03-31T15:30:25.930Z,12.93
2019-03-31T15:31:25.929Z,12.95
2019-03-31T15:32:25.915Z,12.80
2019-03-31T15:33:25.911Z,12.72
2019-03-31T15:34:25.901Z,12.60
2019-03-31T15:35:25.897Z,12.60
2019-03-31T15:36:25.892Z,12.57
2019-03-31T15:37:26.626Z,12.65
2019-03-31T15:38:25.870Z,12.70
2019-03-31T15:39:25.870Z,12.75
2019-03-31T15:40:27.863Z,12.73
2019-03-31T15:41:25.853Z,12.80
2019-03-31T15:42:25.847Z,12.85
2019-03-31T15:43:25.840Z,12.91
2019-03-31T15:44:25.832Z,12.90
2019-03-31T15:45:26.634Z,12.83
2019-03-31T15:46:26.349Z,12.82
2019-03-31T15:47:25.819Z,12.91
2019-03-31T15:48:25.807Z,12.93
2019-03-31T15:49:25.904Z,12.76
2019-03-31T15:50:25.806Z,12.80
2019-03-31T15:51:25.783Z,12.67
2019-03-31T15:52:25.785Z,12.72
2019-03-31T15:53:26.544Z,12.68
2019-03-31T15:54:25.825Z,12.65
2019-03-31T15:55:25.755Z,12.67
2019-03-31T15:56:26.635Z,12.57
2019-03-31T15:57:25.746Z,12.61
2019-03-31T15:58:25.738Z,12.57
2019-03-31T15:59:25.744Z,12.50
2019-03-31T16:00:26.664Z,12.50
2019-03-31T16:01:25.720Z,12.40
2019-03-31T16:02:26.054Z,12.28
2019-03-31T16:03:28.212Z,12.32
2019-03-31T16:04:25.691Z,12.31
2019-03-31T16:05:25.690Z,12.35
2019-03-31T16:06:25.727Z,12.24
2019-03-31T16:07:25.679Z,12.25
2019-03-31T16:08:25.669Z,12.22
2019-03-31T16:09:25.687Z,12.21
2019-03-31T16:10:25.884Z,12.28
2019-03-31T16:11:25.639Z,12.15
2019-03-31T16:12:25.637Z,12.24
2019-03-31T16:13:25.636Z,12.06
2019-03-31T16:14:25.846Z,12.03
2019-03-31T16:15:25.614Z,12.10
2019-03-31T16:16:25.612Z,12.07
2019-03-31T16:17:25.594Z,12.02
2019-03-31T16:18:25.587Z,12.03
2019-03-31T16:19:25.578Z,12.06
2019-03-31T16:20:25.574Z,12.06
2019-03-31T16:21:25.573Z,12.04
2019-03-31T16:22:25.561Z,11.97
2019-03-31T16:23:25.572Z,11.95
2019-03-31T16:24:25.546Z,11.97
2019-03-31T16:25:25.546Z,11.97
2019-03-31T16:26:25.527Z,12.02
2019-03-31T16:27:25.525Z,12.00
2019-03-31T16:28:25.515Z,11.95
2019-03-31T16:29:25.500Z,12.03
2019-03-31T16:30:25.496Z,11.99
2019-03-31T16:31:25.487Z,11.99
2019-03-31T16:32:25.482Z,11.91
2019-03-31T16:33:25.467Z,11.95
2019-03-31T16:34:25.458Z,11.97
2019-03-31T16:35:25.464Z,11.87
2019-03-31T16:36:25.444Z,11.86
2019-03-31T16:37:25.441Z,11.95
2019-03-31T16:38:25.960Z,11.86
2019-03-31T16:39:36.995Z,11.97
2019-03-31T16:40:25.419Z,11.90
2019-03-31T16:41:25.430Z,11.91
2019-03-31T16:42:25.401Z,11.90
2019-03-31T16:43:25.394Z,11.80
2019-03-31T16:44:25.383Z,11.78
2019-03-31T16:45:25.377Z,11.75
2019-03-31T16:46:25.367Z,11.75
2019-03-31T16:47:25.359Z,11.73
2019-03-31T16:48:25.347Z,11.77
2019-03-31T16:49:25.353Z,11.80
2019-03-31T16:50:25.384Z,11.90
2019-03-31T16:51:25.332Z,11.83
2019-03-31T16:52:25.320Z,11.88
2019-03-31T16:53:25.312Z,11.87
2019-03-31T16:54:25.302Z,11.87
2019-03-31T16:55:25.296Z,11.72
2019-03-31T16:56:25.279Z,11.73
2019-03-31T16:57:25.273Z,11.65
2019-03-31T16:58:25.273Z,11.63
2019-03-31T16:59:25.264Z,11.57
2019-03-31T17:00:25.256Z,11.44
2019-03-31T17:01:25.245Z,11.44
2019-03-31T17:02:25.238Z,11.40
2019-03-31T17:03:25.225Z,11.37
2019-03-31T17:04:25.219Z,11.35
2019-03-31T17:05:25.214Z,11.43
2019-03-31T17:06:25.206Z,11.41
2019-03-31T17:07:25.193Z,11.36
2019-03-31T17:08:25.190Z,11.30
2019-03-31T17:09:25.196Z,11.29
2019-03-31T17:10:25.173Z,11.30
2019-03-31T17:11:25.167Z,11.29
2019-03-31T17:12:25.157Z,11.27
2019-03-31T17:13:25.143Z,11.23
2019-03-31T17:14:25.135Z,11.14
2019-03-31T17:15:25.131Z,11.19
2019-03-31T17:16:25.123Z,11.08
2019-03-31T17:17:25.112Z,11.08
2019-03-31T17:18:25.109Z,11.14
2019-03-31T17:19:25.094Z,11.07
2019-03-31T17:20:25.080Z,11.17
2019-03-31T17:21:25.075Z,11.14
2019-03-31T17:22:25.065Z,11.04
2019-03-31T17:23:25.060Z,11.04
2019-03-31T17:24:25.052Z,11.07
2019-03-31T17:25:25.046Z,11.12
2019-03-31T17:26:25.035Z,11.02
2019-03-31T17:27:25.023Z,11.07
2019-03-31T17:28:25.018Z,11.07
2019-03-31T17:29:25.003Z,11.10
2019-03-31T17:30:24.999Z,10.93
2019-03-31T17:31:24.989Z,10.97
2019-03-31T17:32:24.982Z,10.99
2019-03-31T17:33:24.971Z,10.96
2019-03-31T17:34:24.961Z,10.89
2019-03-31T17:35:24.959Z,10.87
2019-03-31T17:36:24.951Z,10.84
2019-03-31T17:37:24.943Z,10.90
2019-03-31T17:38:24.930Z,10.79
2019-03-31T17:39:24.934Z,10.74
2019-03-31T17:40:24.932Z,10.78
2019-03-31T17:41:24.908Z,10.69
2019-03-31T17:42:24.889Z,10.76
2019-03-31T17:43:24.886Z,10.64
2019-03-31T17:44:24.877Z,10.72
2019-03-31T17:45:24.872Z,10.68
2019-03-31T17:46:24.857Z,10.74
2019-03-31T17:47:25.689Z,10.69
2019-03-31T17:48:24.841Z,10.68
2019-03-31T17:49:24.836Z,10.63
2019-03-31T17:50:24.845Z,10.64
2019-03-31T17:51:24.818Z,10.54
2019-03-31T17:52:24.808Z,10.57
2019-03-31T17:53:24.801Z,10.54
2019-03-31T17:54:24.788Z,10.42
2019-03-31T17:55:24.800Z,10.53
2019-03-31T17:56:24.772Z,10.53
2019-03-31T17:57:24.789Z,10.46
2019-03-31T17:58:24.763Z,10.37
2019-03-31T17:59:24.750Z,10.33
2019-03-31T18:00:24.751Z,10.28
2019-03-31T18:01:24.731Z,10.44
2019-03-31T18:02:24.732Z,10.28
2019-03-31T18:03:24.715Z,10.26
2019-03-31T18:04:24.711Z,10.30
2019-03-31T18:05:24.697Z,10.25
2019-03-31T18:06:24.695Z,10.19
2019-03-31T18:07:24.671Z,10.26
2019-03-31T18:08:24.663Z,10.20
2019-03-31T18:09:24.658Z,10.17
2019-03-31T18:10:24.648Z,10.17
2019-03-31T18:11:24.642Z,10.16
2019-03-31T18:12:24.636Z,10.09
2019-03-31T18:13:24.626Z,10.13
2019-03-31T18:14:24.608Z,10.10
2019-03-31T18:15:24.604Z,10.16
2019-03-31T18:16:24.597Z,10.17
2019-03-31T18:17:24.596Z,10.10
2019-03-31T18:18:24.574Z,10.01
2019-03-31T18:19:24.565Z,10.02
2019-03-31T18:20:24.563Z,10.02
2019-03-31T18:21:27.264Z,9.92
2019-03-31T18:22:24.534Z,9.94
2019-03-31T18:23:24.528Z,9.83
2019-03-31T18:24:24.522Z,9.84
2019-03-31T18:25:24.510Z,9.83
2019-03-31T18:26:24.507Z,9.86
2019-03-31T18:27:24.490Z,9.79
2019-03-31T18:28:24.483Z,9.80
2019-03-31T18:29:24.481Z,9.80
2019-03-31T18:30:24.493Z,9.76
2019-03-31T18:31:24.454Z,9.76
2019-03-31T18:32:24.455Z,9.82
2019-03-31T18:33:24.432Z,9.76
2019-03-31T18:34:24.422Z,9.74
2019-03-31T18:35:24.417Z,9.76
2019-03-31T18:36:35.976Z,9.72
2019-03-31T18:37:24.406Z,9.68
2019-03-31T18:38:24.396Z,9.62
2019-03-31T18:39:24.403Z,9.62
2019-03-31T18:40:34.740Z,9.59
2019-03-31T18:41:24.367Z,9.68
2019-03-31T18:42:24.353Z,9.56
2019-03-31T18:43:24.350Z,9.58
2019-03-31T18:44:24.334Z,9.48
2019-03-31T18:45:24.328Z,9.50
2019-03-31T18:46:24.319Z,9.51
2019-03-31T18:47:24.317Z,9.40
2019-03-31T18:48:24.301Z,9.46
2019-03-31T18:49:24.289Z,9.40
2019-03-31T18:50:24.286Z,9.37
2019-03-31T18:51:24.291Z,9.41
2019-03-31T18:52:24.261Z,9.34
2019-03-31T18:53:24.249Z,9.26
2019-03-31T18:54:24.240Z,9.31
2019-03-31T18:55:24.236Z,9.29
2019-03-31T18:56:24.229Z,9.32
2019-03-31T18:57:24.217Z,9.18
2019-03-31T18:58:24.206Z,9.22
2019-03-31T18:59:24.194Z,9.19
2019-03-31T19:00:24.192Z,9.11
2019-03-31T19:01:24.185Z,9.13
2019-03-31T19:02:25.250Z,9.13
2019-03-31T19:03:24.162Z,9.16
2019-03-31T19:04:24.149Z,9.22
2019-03-31T19:05:24.663Z,9.14
2019-03-31T19:06:24.125Z,9.14
2019-03-31T19:07:24.120Z,9.16
2019-03-31T19:08:24.119Z,9.10
2019-03-31T19:09:24.103Z,9.14
2019-03-31T19:10:25.185Z,9.13
2019-03-31T19:11:24.080Z,9.16
2019-03-31T19:12:24.077Z,9.14
2019-03-31T19:13:24.061Z,9.14
2019-03-31T19:14:24.178Z,9.14
2019-03-31T19:15:24.047Z,9.00
2019-03-31T19:16:24.060Z,9.06
2019-03-31T19:17:24.034Z,8.91
2019-03-31T19:18:24.016Z,8.89
2019-03-31T19:19:24.004Z,8.81
2019-03-31T19:20:23.997Z,8.79
2019-03-31T19:21:23.984Z,8.78
2019-03-31T19:22:23.975Z,8.67
2019-03-31T19:23:23.969Z,8.63
2019-03-31T19:24:23.959Z,8.61
2019-03-31T19:25:23.944Z,8.52
2019-03-31T19:26:23.934Z,8.46
2019-03-31T19:27:23.941Z,8.49
2019-03-31T19:28:23.918Z,8.46
2019-03-31T19:29:23.922Z,8.42
2019-03-31T19:30:23.904Z,8.38
2019-03-31T19:31:23.892Z,8.41
2019-03-31T19:32:23.876Z,8.44
2019-03-31T19:33:23.881Z,8.34
2019-03-31T19:34:23.864Z,8.42
2019-03-31T19:35:23.857Z,8.36
2019-03-31T19:36:23.843Z,8.31
2019-03-31T19:37:23.836Z,8.24
2019-03-31T19:38:23.822Z,8.13
2019-03-31T19:39:23.814Z,8.15
2019-03-31T19:40:23.800Z,8.16
2019-03-31T19:41:23.799Z,8.16
2019-03-31T19:42:23.787Z,8.06
2019-03-31T19:43:23.777Z,8.12
2019-03-31T19:44:23.765Z,8.09
2019-03-31T19:45:23.754Z,8.03
2019-03-31T19:46:23.741Z,7.90
2019-03-31T19:47:23.737Z,7.94
2019-03-31T19:48:23.721Z,7.87
2019-03-31T19:49:23.720Z,7.95
2019-03-31T19:50:23.708Z,7.90
2019-03-31T19:51:23.700Z,7.94
2019-03-31T19:52:23.700Z,7.82
2019-03-31T19:53:23.673Z,7.85
2019-03-31T19:54:23.669Z,7.79
2019-03-31T19:55:23.655Z,7.77
2019-03-31T19:56:23.647Z,7.77
2019-03-31T19:57:23.643Z,7.76
2019-03-31T19:58:23.630Z,7.70
2019-03-31T19:59:23.618Z,7.70
2019-03-31T20:00:23.609Z,7.70
2019-03-31T20:01:23.600Z,7.63
2019-03-31T20:02:25.283Z,7.70
2019-03-31T20:03:23.586Z,7.67
2019-03-31T20:04:23.568Z,7.57
2019-03-31T20:05:23.558Z,7.50
2019-03-31T20:06:23.615Z,7.58
2019-03-31T20:07:23.536Z,7.54
2019-03-31T20:08:23.530Z,7.45
2019-03-31T20:09:23.521Z,7.42
2019-03-31T20:10:23.509Z,7.39
2019-03-31T20:11:23.498Z,7.42
2019-03-31T20:12:23.489Z,7.31
2019-03-31T20:13:23.478Z,7.38
2019-03-31T20:14:23.469Z,7.33
2019-03-31T20:15:23.462Z,7.29
2019-03-31T20:16:23.464Z,7.21
2019-03-31T20:17:23.450Z,7.18
2019-03-31T20:18:23.430Z,7.18
2019-03-31T20:19:23.419Z,7.28
2019-03-31T20:20:23.411Z,7.18
2019-03-31T20:21:31.920Z,7.23
2019-03-31T20:22:23.391Z,7.11
2019-03-31T20:23:23.425Z,7.06
2019-03-31T20:24:23.380Z,7.11
2019-03-31T20:25:23.358Z,7.05
2019-03-31T20:26:23.349Z,7.02
2019-03-31T20:27:23.334Z,7.03
2019-03-31T20:28:23.339Z,7.06
2019-03-31T20:29:23.321Z,6.99
2019-03-31T20:30:23.307Z,6.92
2019-03-31T20:31:23.297Z,6.93
2019-03-31T20:32:23.287Z,6.93
2019-03-31T20:33:23.275Z,7.00
2019-03-31T20:34:23.277Z,6.96
2019-03-31T20:35:23.260Z,6.88
2019-03-31T20:36:23.250Z,6.97
2019-03-31T20:37:23.231Z,6.95
2019-03-31T20:38:23.224Z,6.87
2019-03-31T20:39:23.216Z,6.87
2019-03-31T20:40:23.209Z,6.78
2019-03-31T20:41:23.207Z,6.79
2019-03-31T20:42:23.191Z,6.78
2019-03-31T20:43:23.188Z,6.66
2019-03-31T20:44:23.167Z,6.67
2019-03-31T20:45:23.747Z,6.63
2019-03-31T20:46:23.164Z,6.64
2019-03-31T20:47:23.132Z,6.64
2019-03-31T20:48:23.126Z,6.51
2019-03-31T20:49:23.113Z,6.51
2019-03-31T20:50:23.104Z,6.45
2019-03-31T20:51:23.092Z,6.45
2019-03-31T20:52:23.078Z,6.44
2019-03-31T20:53:23.073Z,6.45
2019-03-31T20:54:23.063Z,6.45
2019-03-31T20:55:23.072Z,6.46
2019-03-31T20:56:23.044Z,6.45
2019-03-31T20:57:23.027Z,6.41
2019-03-31T20:58:23.016Z,6.36
2019-03-31T20:59:23.030Z,6.30
2019-03-31T21:00:23.005Z,6.30
2019-03-31T21:01:22.992Z,6.31
2019-03-31T21:02:22.978Z,6.28
2019-03-31T21:03:22.972Z,6.27
2019-03-31T21:04:22.958Z,6.24
2019-03-31T21:05:22.950Z,6.24
2019-03-31T21:06:22.938Z,6.19
2019-03-31T21:07:22.946Z,6.24
2019-03-31T21:08:22.916Z,6.19
2019-03-31T21:09:22.903Z,6.09
2019-03-31T21:10:22.982Z,6.12
2019-03-31T21:11:22.882Z,6.11
2019-03-31T21:12:22.875Z,6.07
2019-03-31T21:13:22.863Z,5.99
2019-03-31T21:14:22.852Z,6.04
2019-03-31T21:15:22.845Z,5.94
2019-03-31T21:16:22.840Z,5.93
2019-03-31T21:17:22.824Z,5.97
2019-03-31T21:18:22.837Z,6.01
2019-03-31T21:19:22.802Z,5.91
2019-03-31T21:20:22.793Z,5.94
2019-03-31T21:21:22.791Z,5.91
2019-03-31T21:22:22.774Z,5.93
2019-03-31T21:23:22.760Z,5.84
2019-03-31T21:24:22.754Z,5.79
2019-03-31T21:25:22.737Z,5.89
2019-03-31T21:26:22.753Z,5.80
2019-03-31T21:27:22.728Z,5.89
2019-03-31T21:28:22.709Z,5.91